Time;durP1;ratioP1;P1;durP2;ratioP2;P2;SDS_P1;SDS_P2;PMS_P1;PMS_P2;Temp;Humidity;BMP_temperature;BMP_pressure;BME280_temperature;BME280_humidity;BME280_pressure;Samples;Min_cycle;Max_cycle;Signal;HPM_P1;HPM_P2
2023/07/23 00:01:47;;;;;;;10.70;6.00;;;;;;;;;;110462;1277;22117;-82
2023/07/23 00:04:14;;;;;;;9.70;5.60;;;;;;;;;;110414;1277;22744;-82
2023/07/23 00:06:41;;;;;;;9.00;5.10;;;;;;;;;;110341;1277;22194;-82
2023/07/23 00:09:09;;;;;;;36.70;6.30;;;;;;;;;;110781;1254;22148;-82
2023/07/23 00:11:36;;;;;;;11.60;5.50;;;;;;;;;;110470;1277;22162;-82
2023/07/23 00:14:03;;;;;;;10.50;5.00;;;;;;;;;;110420;1277;22789;-82
2023/07/23 00:16:29;;;;;;;10.30;5.30;;;;;;;;;;110453;1277;22733;-82
2023/07/23 00:18:56;;;;;;;10.60;5.80;;;;;;;;;;110586;1259;22116;-82
2023/07/23 00:21:23;;;;;;;8.70;5.30;;;;;;;;;;110478;1277;22103;-82
2023/07/23 00:23:50;;;;;;;10.00;5.50;;;;;;;;;;110459;1270;22900;-82
2023/07/23 00:26:17;;;;;;;8.80;5.50;;;;;;;;;;110405;1277;22114;-82
2023/07/23 00:28:44;;;;;;;10.80;5.90;;;;;;;;;;110604;1257;22111;-82
2023/07/23 00:31:10;;;;;;;9.30;5.20;;;;;;;;;;110485;1277;22151;-82
2023/07/23 00:33:37;;;;;;;9.90;5.30;;;;;;;;;;110401;1278;22050;-82
2023/07/23 00:36:04;;;;;;;10.90;5.10;;;;;;;;;;110331;1273;22859;-82
2023/07/23 00:38:30;;;;;;;9.20;5.10;;;;;;;;;;110319;1256;22771;-82
2023/07/23 00:40:57;;;;;;;9.70;5.00;;;;;;;;;;110437;1277;22094;-82
2023/07/23 00:43:24;;;;;;;9.00;5.20;;;;;;;;;;110169;1277;22105;-82
2023/07/23 00:45:51;;;;;;;12.50;5.50;;;;;;;;;;110318;1278;22774;-82
2023/07/23 00:48:18;;;;;;;9.20;5.40;;;;;;;;;;110178;1254;22130;-82
2023/07/23 00:50:48;;;;;;;10.20;5.30;;;;;;;;;;110218;1277;22453;-82
2023/07/23 00:53:15;;;;;;;9.80;5.60;;;;;;;;;;110208;1277;22118;-82
2023/07/23 00:55:44;;;;;;;9.30;5.60;;;;;;;;;;110315;1278;22152;-82
2023/07/23 00:58:11;;;;;;;8.90;5.20;;;;;;;;;;110339;1277;22168;-82
2023/07/23 01:00:38;;;;;;;11.20;5.40;;;;;;;;;;110239;1260;22980;-82
2023/07/23 01:03:05;;;;;;;9.00;5.10;;;;;;;;;;110434;1277;22143;-82
2023/07/23 01:05:34;;;;;;;9.60;4.80;;;;;;;;;;110207;1277;22113;-82
2023/07/23 01:08:03;;;;;;;9.20;4.80;;;;;;;;;;110192;1277;22714;-82
2023/07/23 01:10:32;;;;;;;9.50;4.80;;;;;;;;;;110743;1256;22758;-82
2023/07/23 01:12:59;;;;;;;8.60;4.90;;;;;;;;;;110384;1275;22138;-82
2023/07/23 01:15:26;;;;;;;9.30;5.30;;;;;;;;;;110336;1277;22287;-82
2023/07/23 01:17:54;;;;;;;10.00;5.50;;;;;;;;;;110451;1277;22428;-82
2023/07/23 01:20:21;;;;;;;9.30;5.50;;;;;;;;;;110682;1258;22140;-82
2023/07/23 01:22:48;;;;;;;9.60;5.50;;;;;;;;;;110181;1278;23121;-82
2023/07/23 01:25:15;;;;;;;10.10;5.20;;;;;;;;;;110416;1277;22875;-82
2023/07/23 01:27:42;;;;;;;9.70;5.50;;;;;;;;;;110339;1277;22111;-82
2023/07/23 01:30:09;;;;;;;8.80;5.00;;;;;;;;;;110581;1258;22157;-82
2023/07/23 01:32:37;;;;;;;8.80;4.80;;;;;;;;;;110184;1278;22110;-82
2023/07/23 01:35:08;;;;;;;8.90;4.70;;;;;;;;;;110162;1278;22122;-82
2023/07/23 01:37:36;;;;;;;9.50;4.50;;;;;;;;;;110308;1278;22078;-82
2023/07/23 01:40:03;;;;;;;8.50;4.60;;;;;;;;;;110463;1256;22157;-82
2023/07/23 01:42:31;;;;;;;9.40;5.10;;;;;;;;;;110394;1278;22115;-82
2023/07/23 01:45:02;;;;;;;8.20;4.70;;;;;;;;;;110362;1278;22352;-82
2023/07/23 01:47:31;;;;;;;11.20;5.00;;;;;;;;;;110146;1278;22827;-82
2023/07/23 01:49:58;;;;;;;8.90;4.80;;;;;;;;;;110315;1260;22177;-82
2023/07/23 01:52:26;;;;;;;9.10;4.70;;;;;;;;;;110402;1278;21954;-82
2023/07/23 01:54:57;;;;;;;9.50;5.00;;;;;;;;;;110386;1278;22162;-82
2023/07/23 01:57:25;;;;;;;8.20;4.80;;;;;;;;;;110149;1278;22125;-82
2023/07/23 01:59:54;;;;;;;9.20;4.70;;;;;;;;;;110217;1257;22137;-82
2023/07/23 02:02:21;;;;;;;8.50;4.50;;;;;;;;;;110155;1278;22080;-82
2023/07/23 02:04:49;;;;;;;7.50;4.10;;;;;;;;;;110393;1278;22767;-82
2023/07/23 02:07:18;;;;;;;7.90;3.90;;;;;;;;;;110280;1278;22101;-82
2023/07/23 02:09:49;;;;;;;8.10;4.40;;;;;;;;;;110266;1278;22694;-82
2023/07/23 02:12:17;;;;;;;7.80;4.30;;;;;;;;;;110534;1262;22131;-82
2023/07/23 02:14:48;;;;;;;11.50;4.60;;;;;;;;;;110283;1278;22129;-81
2023/07/23 02:17:15;;;;;;;8.60;4.30;;;;;;;;;;110297;1272;22095;-82
2023/07/23 02:19:43;;;;;;;7.70;3.90;;;;;;;;;;110138;1278;22112;-82
2023/07/23 02:22:11;;;;;;;7.80;4.00;;;;;;;;;;110634;1259;22925;-82
2023/07/23 02:24:38;;;;;;;8.60;4.30;;;;;;;;;;110309;1278;22099;-82
2023/07/23 02:27:05;;;;;;;8.10;3.70;;;;;;;;;;110275;1278;22085;-82
2023/07/23 02:29:33;;;;;;;6.90;3.70;;;;;;;;;;110173;1278;22116;-82
2023/07/23 02:32:20;;;;;;;8.40;4.10;;;;;;;;;;110614;1254;22184;-82
2023/07/23 02:34:49;;;;;;;7.30;3.80;;;;;;;;;;110361;1278;22100;-82
2023/07/23 02:37:18;;;;;;;7.50;3.60;;;;;;;;;;110216;1279;22007;-82
2023/07/23 02:39:48;;;;;;;8.90;3.70;;;;;;;;;;110199;1279;22020;-82
2023/07/23 02:42:20;;;;;;;7.60;3.30;;;;;;;;;;110559;1259;22137;-81
2023/07/23 02:44:49;;;;;;;7.40;3.10;;;;;;;;;;110127;1279;22109;-82
2023/07/23 02:47:19;;;;;;;6.10;3.00;;;;;;;;;;110373;1279;22126;-82
2023/07/23 02:49:48;;;;;;;7.00;3.50;;;;;;;;;;110186;1279;22072;-82
2023/07/23 02:52:17;;;;;;;8.70;3.50;;;;;;;;;;110490;1259;22751;-82
2023/07/23 02:54:47;;;;;;;7.00;3.20;;;;;;;;;;110217;1279;22125;-82
2023/07/23 02:57:16;;;;;;;6.90;3.50;;;;;;;;;;110355;1278;22803;-82
2023/07/23 02:59:46;;;;;;;6.40;3.10;;;;;;;;;;110350;1263;22323;-81
2023/07/23 03:02:16;;;;;;;7.20;3.50;;;;;;;;;;110181;1273;22108;-82
2023/07/23 03:09:28;;;;;;;7.00;3.20;;;;;;;;;;110091;1277;22112;-82
2023/07/23 03:11:58;;;;;;;8.70;3.30;;;;;;;;;;110233;1262;22109;-81
2023/07/23 03:14:27;;;;;;;9.00;3.30;;;;;;;;;;110171;1279;22111;-82
2023/07/23 03:16:56;;;;;;;6.70;3.30;;;;;;;;;;110196;1279;22117;-82
2023/07/23 03:19:34;;;;;;;6.70;3.10;;;;;;;;;;110180;1279;22145;-82
2023/07/23 03:22:03;;;;;;;6.20;3.20;;;;;;;;;;110418;1259;22189;-82
2023/07/23 03:24:32;;;;;;;6.40;3.20;;;;;;;;;;110346;1279;22191;-82
2023/07/23 03:27:03;;;;;;;6.90;3.30;;;;;;;;;;110109;1279;22105;-82
2023/07/23 03:29:34;;;;;;;7.10;3.20;;;;;;;;;;110172;1279;22566;-82
2023/07/23 03:32:03;;;;;;;7.50;3.60;;;;;;;;;;110177;1259;22132;-81
2023/07/23 03:41:39;;;;;;;7.00;3.10;;;;;;;;;;103747;1295;545122;-82
2023/07/23 03:44:05;;;;;;;7.00;3.30;;;;;;;;;;106142;1288;25364;-82
2023/07/23 03:46:42;;;;;;;7.60;3.20;;;;;;;;;;106082;1281;25383;-82
2023/07/23 03:49:14;;;;;;;6.10;3.00;;;;;;;;;;106314;1288;22613;-83
2023/07/23 03:51:44;;;;;;;6.60;3.10;;;;;;;;;;106311;1269;22527;-86
2023/07/23 03:54:13;;;;;;;7.80;3.50;;;;;;;;;;102118;1286;5393455;-81
2023/07/23 03:56:40;;;;;;;7.10;3.10;;;;;;;;;;106313;1285;22550;-85
2023/07/23 03:59:15;;;;;;;7.00;3.20;;;;;;;;;;106437;1285;26495;-81
2023/07/23 04:02:08;;;;;;;7.90;3.30;;;;;;;;;;106432;1266;24224;-87
2023/07/23 04:04:34;;;;;;;6.90;2.80;;;;;;;;;;106463;1285;22545;-86
2023/07/23 04:07:02;;;;;;;7.30;3.20;;;;;;;;;;106873;1279;22576;-87
2023/07/23 04:09:31;;;;;;;8.60;3.20;;;;;;;;;;106862;1279;22539;-86
2023/07/23 04:11:58;;;;;;;7.10;3.30;;;;;;;;;;106860;1260;22535;-84
2023/07/23 04:14:25;;;;;;;6.10;2.90;;;;;;;;;;106883;1275;23902;-82
2023/07/23 04:16:55;;;;;;;8.50;3.30;;;;;;;;;;106843;1278;24193;-88
2023/07/23 04:19:22;;;;;;;7.50;3.40;;;;;;;;;;106852;1279;22487;-83
2023/07/23 04:21:59;;;;;;;6.00;3.10;;;;;;;;;;106825;1279;22652;-85
2023/07/23 04:24:26;;;;;;;6.30;3.30;;;;;;;;;;107165;1274;22724;-81
2023/07/23 04:26:53;;;;;;;7.00;3.20;;;;;;;;;;107192;1274;25242;-79
2023/07/23 04:29:20;;;;;;;6.40;2.90;;;;;;;;;;107230;1274;24219;-84
2023/07/23 04:32:05;;;;;;;6.70;3.30;;;;;;;;;;106967;1256;25268;-84
2023/07/23 04:34:41;;;;;;;7.20;3.50;;;;;;;;;;107184;1275;23296;-85
2023/07/23 04:37:11;;;;;;;7.20;3.30;;;;;;;;;;107060;1275;22524;-82
2023/07/23 04:39:38;;;;;;;6.80;3.50;;;;;;;;;;107163;1275;22523;-85
2023/07/23 04:42:08;;;;;;;5.70;3.00;;;;;;;;;;107087;1256;22523;-85
2023/07/23 04:44:35;;;;;;;7.70;3.30;;;;;;;;;;107148;1275;22499;-85
2023/07/23 04:47:02;;;;;;;6.40;3.40;;;;;;;;;;107163;1275;22523;-83
2023/07/23 04:49:29;;;;;;;7.70;3.40;;;;;;;;;;107066;1275;22520;-84
2023/07/23 04:51:56;;;;;;;7.40;3.30;;;;;;;;;;107050;1263;22507;-80
2023/07/23 04:54:22;;;;;;;7.80;3.30;;;;;;;;;;107005;1275;24247;-85
2023/07/23 04:56:49;;;;;;;9.20;3.50;;;;;;;;;;107012;1275;24284;-84
2023/07/23 04:59:16;;;;;;;9.30;3.40;;;;;;;;;;106993;1275;24253;-84
2023/07/23 05:01:42;;;;;;;7.90;3.30;;;;;;;;;;106985;1275;22520;-81
2023/07/23 05:04:10;;;;;;;6.20;3.20;;;;;;;;;;106993;1275;22529;-85
2023/07/23 05:06:37;;;;;;;6.70;3.30;;;;;;;;;;107010;1275;24384;-86
2023/07/23 05:09:06;;;;;;;6.10;3.30;;;;;;;;;;106971;1275;22508;-85
2023/07/23 05:11:38;;;;;;;5.90;3.10;;;;;;;;;;106917;1275;25328;-85
2023/07/23 05:14:06;;;;;;;6.40;3.20;;;;;;;;;;107049;1275;22523;-82
2023/07/23 05:16:32;;;;;;;6.90;3.10;;;;;;;;;;107146;1275;22531;-86
2023/07/23 05:19:17;;;;;;;;;;;;;;;;;;;;;
2023/07/23 05:21:47;;;;;;;6.70;3.20;;;;;;;;;;106993;1275;23895;-82
2023/07/23 05:24:16;;;;;;;6.80;3.10;;;;;;;;;;107036;1258;23867;-85
2023/07/23 05:26:45;;;;;;;6.70;3.30;;;;;;;;;;107003;1275;22523;-82
2023/07/23 05:29:12;;;;;;;7.00;3.40;;;;;;;;;;107151;1275;24197;-87
2023/07/23 05:31:39;;;;;;;7.60;3.60;;;;;;;;;;107126;1275;25259;-85
2023/07/23 05:34:08;;;;;;;6.50;3.20;;;;;;;;;;107005;1258;24050;-84
2023/07/23 05:36:35;;;;;;;6.20;3.20;;;;;;;;;;107147;1275;22772;-83
2023/07/23 05:39:02;;;;;;;6.90;3.30;;;;;;;;;;107146;1275;25281;-85
2023/07/23 05:41:29;;;;;;;7.00;3.20;;;;;;;;;;107111;1275;26577;-84
2023/07/23 05:43:58;;;;;;;8.70;3.20;;;;;;;;;;107158;1256;24349;-84
2023/07/23 05:46:25;;;;;;;6.30;3.30;;;;;;;;;;106975;1275;22521;-85
2023/07/23 05:48:52;;;;;;;6.90;2.90;;;;;;;;;;106970;1275;23880;-83
2023/07/23 05:51:21;;;;;;;6.50;2.90;;;;;;;;;;107142;1275;24247;-85
2023/07/23 05:53:48;;;;;;;6.30;3.30;;;;;;;;;;106924;1259;23873;-84
2023/07/23 05:56:15;;;;;;;5.40;2.90;;;;;;;;;;107162;1272;22525;-87
2023/07/23 05:58:52;;;;;;;8.20;3.00;;;;;;;;;;107014;1275;22483;-88
2023/07/23 06:01:19;;;;;;;5.80;3.00;;;;;;;;;;107119;1275;24243;-86
2023/07/23 06:03:48;;;;;;;7.20;3.30;;;;;;;;;;106973;1275;25325;-82
2023/07/23 06:06:18;;;;;;;7.40;3.00;;;;;;;;;;107135;1275;22644;-82
2023/07/23 06:08:45;;;;;;;6.30;3.10;;;;;;;;;;107160;1275;24263;-89
2023/07/23 06:11:11;;;;;;;7.00;3.30;;;;;;;;;;107079;1275;24192;-81
2023/07/23 06:13:38;;;;;;;8.00;3.10;;;;;;;;;;107151;1256;22551;-82
2023/07/23 06:16:05;;;;;;;7.10;3.20;;;;;;;;;;107016;1275;23117;-83
2023/07/23 06:18:41;;;;;;;5.60;3.00;;;;;;;;;;107081;1275;23281;-86
2023/07/23 06:21:11;;;;;;;6.30;3.10;;;;;;;;;;107028;1251;22519;-82
2023/07/23 06:23:38;;;;;;;7.10;3.00;;;;;;;;;;107003;1253;22486;-85
2023/07/23 06:26:18;;;;;;;6.20;2.80;;;;;;;;;;107138;1275;24257;-84
2023/07/23 06:28:48;;;;;;;6.60;3.00;;;;;;;;;;106989;1275;22538;-88
2023/07/23 06:31:18;;;;;;;7.50;3.30;;;;;;;;;;107028;1275;24342;-82
2023/07/23 06:33:44;;;;;;;6.80;3.30;;;;;;;;;;107119;1260;22523;-89
2023/07/23 06:36:12;;;;;;;5.90;3.00;;;;;;;;;;107035;1275;22531;-87
2023/07/23 06:38:38;;;;;;;6.50;3.00;;;;;;;;;;107165;1275;22513;-85
2023/07/23 06:41:06;;;;;;;7.50;2.90;;;;;;;;;;106977;1275;24312;-85
2023/07/23 06:43:33;;;;;;;6.10;2.90;;;;;;;;;;107119;1275;22608;-88
2023/07/23 06:46:00;;;;;;;6.70;3.00;;;;;;;;;;107152;1256;22507;-83
2023/07/23 06:48:35;;;;;;;6.90;3.00;;;;;;;;;;107007;1275;25165;-82
2023/07/23 06:51:02;;;;;;;5.50;2.90;;;;;;;;;;106963;1275;26192;-85
2023/07/23 06:53:32;;;;;;;6.90;3.10;;;;;;;;;;106970;1275;24251;-84
2023/07/23 06:56:05;;;;;;;6.70;3.10;;;;;;;;;;107048;1272;24217;-82
2023/07/23 06:58:33;;;;;;;6.70;3.20;;;;;;;;;;107247;1275;24253;-84
2023/07/23 07:01:00;;;;;;;6.60;3.00;;;;;;;;;;107303;1275;25112;-82
2023/07/23 07:03:27;;;;;;;6.10;3.00;;;;;;;;;;107102;1275;22523;-82
2023/07/23 07:06:16;;;;;;;6.80;3.20;;;;;;;;;;107090;1259;23859;-87
2023/07/23 07:09:23;;;;;;;7.20;3.40;;;;;;;;;;107143;1275;23877;-83
2023/07/23 07:11:52;;;;;;;6.80;3.20;;;;;;;;;;107217;1275;25328;-85
2023/07/23 07:14:21;;;;;;;6.00;3.00;;;;;;;;;;107093;1275;22488;-82
2023/07/23 07:16:58;;;;;;;5.70;2.90;;;;;;;;;;107061;1259;25346;-86
2023/07/23 07:19:34;;;;;;;6.00;3.10;;;;;;;;;;107024;1276;22524;-87
2023/07/23 07:22:47;;;;;;;6.90;2.80;;;;;;;;;;107008;1275;22524;-83
2023/07/23 07:25:08;;;;;;;6.60;2.90;;;;;;;;;;107005;1256;22521;-85
2023/07/23 07:27:38;;;;;;;5.70;2.70;;;;;;;;;;106962;1275;25357;-82
2023/07/23 07:30:05;;;;;;;5.70;3.00;;;;;;;;;;107117;1275;22527;-82
2023/07/23 07:32:32;;;;;;;7.50;3.10;;;;;;;;;;106934;1275;24367;-85
2023/07/23 07:34:59;;;;;;;6.10;3.00;;;;;;;;;;106978;1275;22524;-88
2023/07/23 07:37:27;;;;;;;5.80;2.70;;;;;;;;;;106940;1275;22524;-84
2023/07/23 07:39:57;;;;;;;6.10;2.90;;;;;;;;;;106931;1275;22502;-89
2023/07/23 07:42:51;;;;;;;5.60;2.60;;;;;;;;;;106992;1275;24195;-84
2023/07/23 07:45:17;;;;;;;7.10;3.20;;;;;;;;;;107076;1254;24257;-82
2023/07/23 07:47:44;;;;;;;7.40;2.90;;;;;;;;;;106981;1275;25428;-87
2023/07/23 07:50:11;;;;;;;5.70;2.90;;;;;;;;;;106957;1275;23265;-84
2023/07/23 07:52:56;;;;;;;7.10;3.20;;;;;;;;;;106953;1275;22520;-83
2023/07/23 07:55:40;;;;;;;7.40;3.10;;;;;;;;;;106970;1253;22529;-85
2023/07/23 07:58:10;;;;;;;6.20;3.30;;;;;;;;;;106946;1276;22527;-85
2023/07/23 08:00:37;;;;;;;6.20;2.90;;;;;;;;;;106955;1276;22535;-84
2023/07/23 08:03:04;;;;;;;5.70;2.90;;;;;;;;;;106742;1276;22667;-84
2023/07/23 08:05:32;;;;;;;8.20;2.80;;;;;;;;;;106958;1260;22537;-83
2023/07/23 08:08:04;;;;;;;6.10;2.60;;;;;;;;;;106889;1275;23121;-83
2023/07/23 08:10:39;;;;;;;9.80;3.00;;;;;;;;;;107192;1275;25457;-82
2023/07/23 08:13:18;;;;;;;;;;;;;;;;;;;;;
2023/07/23 08:15:56;;;;;;;7.00;2.70;;;;;;;;;;106990;1254;23871;-89
2023/07/23 08:18:24;;;;;;;6.00;3.00;;;;;;;;;;107078;1275;25278;-86
2023/07/23 08:20:51;;;;;;;5.50;2.70;;;;;;;;;;106952;1275;22647;-86
2023/07/23 08:23:20;;;;;;;5.50;2.80;;;;;;;;;;107053;1276;22648;-82
2023/07/23 08:25:57;;;;;;;6.80;3.00;;;;;;;;;;107006;1276;22492;-81
2023/07/23 08:28:27;;;;;;;6.60;2.60;;;;;;;;;;106987;1275;22527;-85
2023/07/23 08:30:56;;;;;;;5.80;2.90;;;;;;;;;;107055;1275;23895;-87
2023/07/23 08:33:28;;;;;;;6.70;2.80;;;;;;;;;;106940;1275;25318;-87
2023/07/23 08:35:56;;;;;;;7.10;2.90;;;;;;;;;;107075;1276;24243;-84
2023/07/23 08:38:26;;;;;;;6.20;2.70;;;;;;;;;;106984;1275;23129;-87
2023/07/23 08:40:58;;;;;;;5.80;3.00;;;;;;;;;;107139;1254;22544;-83
2023/07/23 08:43:27;;;;;;;8.00;3.20;;;;;;;;;;107256;1275;22650;-84
2023/07/23 08:46:00;;;;;;;6.40;3.00;;;;;;;;;;107005;1276;23126;-88
2023/07/23 08:48:47;;;;;;;5.70;2.70;;;;;;;;;;107030;1272;22535;-83
2023/07/23 08:51:26;;;;;;;5.50;2.90;;;;;;;;;;106961;1275;23127;-86
2023/07/23 08:53:53;;;;;;;5.90;2.20;;;;;;;;;;106946;1275;23936;-86
2023/07/23 08:56:20;;;;;;;5.60;2.90;;;;;;;;;;106945;1274;22483;-83
2023/07/23 08:58:48;;;;;;;6.10;2.90;;;;;;;;;;107119;1260;25268;-82
2023/07/23 09:01:16;;;;;;;5.70;2.90;;;;;;;;;;107058;1275;22524;-81
2023/07/23 09:03:43;;;;;;;5.60;2.50;;;;;;;;;;106985;1275;22528;-88
2023/07/23 09:06:10;;;;;;;7.50;3.20;;;;;;;;;;107049;1275;23284;-88
2023/07/23 09:08:37;;;;;;;5.80;2.90;;;;;;;;;;107042;1259;24284;-82
2023/07/23 09:11:05;;;;;;;7.00;3.10;;;;;;;;;;107092;1271;25271;-85
2023/07/23 09:13:35;;;;;;;5.60;2.70;;;;;;;;;;106960;1254;24261;-88
2023/07/23 09:16:04;;;;;;;7.00;2.80;;;;;;;;;;107066;1275;22779;-84
2023/07/23 09:18:43;;;;;;;6.30;2.70;;;;;;;;;;107054;1275;22529;-84
2023/07/23 09:21:10;;;;;;;8.30;2.90;;;;;;;;;;107048;1275;22480;-83
2023/07/23 09:23:37;;;;;;;6.30;2.70;;;;;;;;;;106952;1275;22525;-84
2023/07/23 09:26:08;;;;;;;6.00;2.80;;;;;;;;;;106950;1275;22732;-87
2023/07/23 09:28:35;;;;;;;6.00;2.70;;;;;;;;;;107041;1257;24216;-89
2023/07/23 09:31:04;;;;;;;8.30;3.20;;;;;;;;;;107012;1276;23892;-83
2023/07/23 09:33:35;;;;;;;7.40;2.60;;;;;;;;;;106963;1253;22523;-91
2023/07/23 09:36:03;;;;;;;8.90;2.90;;;;;;;;;;106896;1276;22584;-88
2023/07/23 09:38:30;;;;;;;8.10;3.00;;;;;;;;;;106949;1260;22518;-85
2023/07/23 09:40:57;;;;;;;10.10;2.80;;;;;;;;;;106938;1275;24010;-84
2023/07/23 09:43:24;;;;;;;6.80;2.70;;;;;;;;;;106996;1275;25278;-85
2023/07/23 09:46:00;;;;;;;7.80;2.80;;;;;;;;;;106982;1275;22963;-88
2023/07/23 09:48:28;;;;;;;10.10;2.70;;;;;;;;;;106939;1259;22527;-86
2023/07/23 09:50:58;;;;;;;11.20;2.80;;;;;;;;;;107007;1275;25281;-83
2023/07/23 09:53:30;;;;;;;6.70;2.70;;;;;;;;;;106945;1275;22613;-87
2023/07/23 09:55:58;;;;;;;9.90;2.70;;;;;;;;;;107155;1276;22767;-84
2023/07/23 09:58:27;;;;;;;7.00;3.10;;;;;;;;;;107108;1264;22854;-84
2023/07/23 10:01:02;;;;;;;7.90;3.00;;;;;;;;;;106906;1275;22524;-87
2023/07/23 10:03:33;;;;;;;6.40;2.50;;;;;;;;;;106874;1275;24278;-84
2023/07/23 10:06:00;;;;;;;6.50;3.10;;;;;;;;;;106989;1276;22524;-83
2023/07/23 10:08:27;;;;;;;6.10;2.90;;;;;;;;;;106981;1273;24304;-81
2023/07/23 10:10:54;;;;;;;6.50;3.10;;;;;;;;;;107099;1275;25169;-86
2023/07/23 10:13:21;;;;;;;8.60;3.60;;;;;;;;;;106953;1275;25565;-86
2023/07/23 10:15:55;;;;;;;8.20;2.80;;;;;;;;;;107122;1275;24243;-83
2023/07/23 10:18:25;;;;;;;7.10;2.70;;;;;;;;;;106907;1253;25722;-87
2023/07/23 10:20:52;;;;;;;5.90;2.60;;;;;;;;;;106924;1275;25175;-88
2023/07/23 10:23:20;;;;;;;5.70;2.70;;;;;;;;;;107004;1275;25322;-85
2023/07/23 10:25:47;;;;;;;7.10;2.30;;;;;;;;;;107001;1276;22553;-83
2023/07/23 10:28:21;;;;;;;6.90;2.60;;;;;;;;;;106993;1275;24214;-83
2023/07/23 10:30:47;;;;;;;7.00;2.70;;;;;;;;;;107008;1259;25357;-82
2023/07/23 10:33:14;;;;;;;5.70;2.40;;;;;;;;;;107112;1276;25382;-82
2023/07/23 10:35:54;;;;;;;7.50;3.10;;;;;;;;;;106965;1276;24446;-79
2023/07/23 10:38:25;;;;;;;6.60;2.60;;;;;;;;;;106955;1276;24410;-85
2023/07/23 10:40:52;;;;;;;10.10;3.00;;;;;;;;;;106927;1259;24473;-84
2023/07/23 10:43:19;;;;;;;6.20;2.80;;;;;;;;;;106943;1276;22527;-80
2023/07/23 10:46:08;;;;;;;5.60;2.60;;;;;;;;;;107058;1276;24261;-84
2023/07/23 10:48:42;;;;;;;5.50;2.70;;;;;;;;;;107010;1275;22527;-82
2023/07/23 10:51:14;;;;;;;6.00;2.80;;;;;;;;;;107203;1258;23875;-81
2023/07/23 10:54:07;;;;;;;6.40;2.50;;;;;;;;;;106919;1276;24218;-83
2023/07/23 10:56:35;;;;;;;6.70;2.70;;;;;;;;;;107044;1276;24210;-80
2023/07/23 10:59:04;;;;;;;9.20;3.00;;;;;;;;;;107080;1275;24224;-80
2023/07/23 11:01:35;;;;;;;6.80;3.00;;;;;;;;;;106809;1260;25408;-83
2023/07/23 11:04:11;;;;;;;5.40;2.60;;;;;;;;;;107041;1275;24202;-82
2023/07/23 11:06:53;;;;;;;6.80;2.70;;;;;;;;;;106932;1276;22569;-80
2023/07/23 11:09:33;;;;;;;5.50;2.80;;;;;;;;;;107260;1269;22531;-82
2023/07/23 11:12:11;;;;;;;5.00;2.60;;;;;;;;;;106977;1260;22527;-84
2023/07/23 11:14:37;;;;;;;7.70;3.00;;;;;;;;;;106941;1275;23001;-80
2023/07/23 11:17:07;;;;;;;8.60;2.80;;;;;;;;;;106871;1275;22599;-86
2023/07/23 11:19:49;;;;;;;;;;;;;;;;;;;;;
2023/07/23 11:22:41;;;;;;;6.90;2.70;;;;;;;;;;107071;1270;25549;-82
2023/07/23 11:25:14;;;;;;;5.30;2.60;;;;;;;;;;107142;1270;22536;-79
2023/07/23 11:27:48;;;;;;;5.80;2.60;;;;;;;;;;106903;1276;23869;-78
2023/07/23 11:30:15;;;;;;;6.00;2.90;;;;;;;;;;106812;1276;24219;-81
2023/07/23 11:32:44;;;;;;;13.70;3.00;;;;;;;;;;106949;1258;24225;-85
2023/07/23 11:35:17;;;;;;;7.60;3.00;;;;;;;;;;106889;1277;22646;-80
2023/07/23 11:37:49;;;;;;;10.60;2.80;;;;;;;;;;106918;1275;22526;-84
2023/07/23 11:40:22;;;;;;;7.60;3.20;;;;;;;;;;106978;1271;22531;-82
2023/07/23 11:42:51;;;;;;;7.50;2.90;;;;;;;;;;106999;1269;24357;-81
2023/07/23 11:45:19;;;;;;;7.90;4.00;;;;;;;;;;106973;1272;25280;-81
2023/07/23 11:47:54;;;;;;;8.10;3.30;;;;;;;;;;107095;1268;22536;-79
2023/07/23 11:50:22;;;;;;;11.10;3.20;;;;;;;;;;107030;1273;25274;-77
2023/07/23 11:52:49;;;;;;;13.40;3.50;;;;;;;;;;106972;1259;21740;-80
2023/07/23 11:55:20;;;;;;;24.60;4.00;;;;;;;;;;107120;1270;25322;-81
2023/07/23 11:58:00;;;;;;;9.90;3.30;;;;;;;;;;107036;1269;22525;-79
2023/07/23 12:00:48;;;;;;;6.90;3.10;;;;;;;;;;107117;1270;24054;-83
2023/07/23 12:03:18;;;;;;;6.70;3.10;;;;;;;;;;107150;1258;25410;-79
2023/07/23 12:05:45;;;;;;;8.80;2.90;;;;;;;;;;106935;1275;22602;-83
2023/07/23 12:08:12;;;;;;;6.70;3.10;;;;;;;;;;106917;1276;22524;-81
2023/07/23 12:10:42;;;;;;;5.50;2.70;;;;;;;;;;107076;1272;22528;-83
2023/07/23 12:13:10;;;;;;;7.70;3.30;;;;;;;;;;106931;1269;24330;-82
2023/07/23 12:15:37;;;;;;;6.50;2.90;;;;;;;;;;106991;1276;25281;-80
2023/07/23 12:18:07;;;;;;;7.40;2.80;;;;;;;;;;106906;1276;24231;-81
2023/07/23 12:20:34;;;;;;;5.90;2.70;;;;;;;;;;106893;1275;24300;-84
2023/07/23 12:23:01;;;;;;;7.00;2.80;;;;;;;;;;106968;1258;22533;-78
2023/07/23 12:25:31;;;;;;;4.90;2.80;;;;;;;;;;107037;1276;22645;-81
2023/07/23 12:27:57;;;;;;;7.50;3.00;;;;;;;;;;106961;1275;22532;-78
2023/07/23 12:30:24;;;;;;;6.90;2.90;;;;;;;;;;106915;1275;25402;-82
2023/07/23 12:32:51;;;;;;;5.20;2.70;;;;;;;;;;107242;1261;22532;-81
2023/07/23 12:35:18;;;;;;;6.70;2.90;;;;;;;;;;107077;1275;24273;-78
2023/07/23 12:37:44;;;;;;;6.10;3.10;;;;;;;;;;107037;1270;25249;-82
2023/07/23 12:40:12;;;;;;;5.50;2.70;;;;;;;;;;106908;1276;24246;-84
2023/07/23 12:42:39;;;;;;;6.10;3.00;;;;;;;;;;106992;1260;22485;-79
2023/07/23 12:45:06;;;;;;;5.60;2.50;;;;;;;;;;106888;1276;24079;-87
2023/07/23 12:47:33;;;;;;;7.90;3.10;;;;;;;;;;106913;1276;23880;-78
2023/07/23 12:50:00;;;;;;;6.60;3.10;;;;;;;;;;107077;1276;22531;-83
2023/07/23 12:52:28;;;;;;;7.60;3.20;;;;;;;;;;106939;1276;22636;-80
2023/07/23 12:54:54;;;;;;;6.20;3.10;;;;;;;;;;106987;1266;25465;-83
2023/07/23 12:57:22;;;;;;;6.30;3.30;;;;;;;;;;106931;1276;22531;-83
2023/07/23 12:59:52;;;;;;;5.40;3.00;;;;;;;;;;106828;1276;25230;-78
2023/07/23 13:02:19;;;;;;;6.40;3.00;;;;;;;;;;106941;1255;25383;-81
2023/07/23 13:04:47;;;;;;;6.00;2.90;;;;;;;;;;106945;1275;22582;-83
2023/07/23 13:07:14;;;;;;;6.70;3.00;;;;;;;;;;106990;1273;22475;-86
2023/07/23 13:09:41;;;;;;;6.30;3.20;;;;;;;;;;106959;1275;24360;-79
2023/07/23 13:12:07;;;;;;;7.70;3.00;;;;;;;;;;107036;1272;24199;-77
2023/07/23 13:14:43;;;;;;;6.90;3.00;;;;;;;;;;106927;1258;22544;-85
2023/07/23 13:17:10;;;;;;;6.90;2.90;;;;;;;;;;107081;1272;22538;-80
2023/07/23 13:19:37;;;;;;;6.40;3.00;;;;;;;;;;107064;1276;22523;-85
2023/07/23 13:22:03;;;;;;;6.10;3.10;;;;;;;;;;106911;1275;22664;-83
2023/07/23 13:24:31;;;;;;;8.40;2.70;;;;;;;;;;106917;1258;23346;-81
2023/07/23 13:26:59;;;;;;;5.90;3.00;;;;;;;;;;107037;1276;25465;-78
2023/07/23 13:29:25;;;;;;;6.10;2.90;;;;;;;;;;106930;1276;22537;-86
2023/07/23 13:31:52;;;;;;;7.90;3.00;;;;;;;;;;106909;1275;25467;-80
2023/07/23 13:34:19;;;;;;;8.60;3.30;;;;;;;;;;106943;1269;22550;-79
2023/07/23 13:36:46;;;;;;;7.10;2.90;;;;;;;;;;106947;1274;25464;-77
2023/07/23 13:39:13;;;;;;;7.90;2.90;;;;;;;;;;106913;1276;22527;-81
2023/07/23 13:41:40;;;;;;;6.10;3.00;;;;;;;;;;106656;1276;22598;-79
2023/07/23 13:44:07;;;;;;;7.60;3.20;;;;;;;;;;106935;1276;22524;-87
2023/07/23 13:46:34;;;;;;;5.90;2.80;;;;;;;;;;106923;1276;22529;-83
2023/07/23 13:49:00;;;;;;;6.80;2.90;;;;;;;;;;107156;1269;22551;-80
2023/07/23 13:51:27;;;;;;;7.20;3.20;;;;;;;;;;106913;1276;22598;-79
2023/07/23 13:53:54;;;;;;;6.40;3.20;;;;;;;;;;106927;1258;25261;-84
2023/07/23 13:56:21;;;;;;;7.10;3.50;;;;;;;;;;107008;1269;24449;-79
2023/07/23 13:58:48;;;;;;;6.30;2.80;;;;;;;;;;106904;1276;22547;-83
2023/07/23 14:01:15;;;;;;;5.80;2.70;;;;;;;;;;107108;1269;25223;-81
2023/07/23 14:03:45;;;;;;;5.60;2.90;;;;;;;;;;107085;1254;24187;-80
2023/07/23 14:06:12;;;;;;;6.90;3.00;;;;;;;;;;107045;1269;25278;-78
2023/07/23 14:08:42;;;;;;;6.80;3.30;;;;;;;;;;107133;1269;24352;-78
2023/07/23 14:11:09;;;;;;;7.20;2.80;;;;;;;;;;107039;1273;22648;-80
2023/07/23 14:13:37;;;;;;;6.80;2.70;;;;;;;;;;106997;1273;24191;-78
2023/07/23 14:16:03;;;;;;;8.70;3.20;;;;;;;;;;107015;1261;26478;-82
2023/07/23 14:18:30;;;;;;;7.20;2.80;;;;;;;;;;107490;1270;22550;-78
2023/07/23 14:20:57;;;;;;;6.30;2.80;;;;;;;;;;107064;1270;23073;-85
2023/07/23 14:23:24;;;;;;;6.50;2.70;;;;;;;;;;107121;1272;22549;-79
2023/07/23 14:25:51;;;;;;;5.80;2.70;;;;;;;;;;107209;1258;22785;-80
2023/07/23 14:28:18;;;;;;;6.10;2.70;;;;;;;;;;107197;1272;25550;-77
2023/07/23 14:30:47;;;;;;;6.00;2.90;;;;;;;;;;107366;1270;24324;-78
2023/07/23 14:33:14;;;;;;;5.50;2.50;;;;;;;;;;107248;1269;24227;-78
2023/07/23 14:35:41;;;;;;;6.50;2.50;;;;;;;;;;107099;1269;25433;-76
2023/07/23 14:38:08;;;;;;;6.10;2.30;;;;;;;;;;107046;1270;22528;-77
2023/07/23 14:40:35;;;;;;;6.50;2.90;;;;;;;;;;107013;1274;22553;-79
2023/07/23 14:43:02;;;;;;;5.50;2.40;;;;;;;;;;107044;1269;22664;-77
2023/07/23 14:45:29;;;;;;;6.10;2.80;;;;;;;;;;107006;1259;24192;-78
2023/07/23 14:47:56;;;;;;;5.20;2.20;;;;;;;;;;106996;1276;22549;-76
2023/07/23 14:50:24;;;;;;;6.10;2.60;;;;;;;;;;107026;1270;23395;-79
2023/07/23 14:52:51;;;;;;;5.50;2.50;;;;;;;;;;107102;1270;24465;-78
2023/07/23 14:55:21;;;;;;;6.00;2.60;;;;;;;;;;107036;1257;23130;-80
2023/07/23 14:57:49;;;;;;;5.00;2.30;;;;;;;;;;107021;1270;22524;-78